Thunder radar more information blitzortung!


Radar de pluja more information rain snow radar


Visita la nostra xarxa de llocs de meteo:

Template documentation
and downloads

And another site



No particular awareness of the weather is required.    There are no Weather-warnings

Pagina Historial Weather Underground text

Diari Resum Agost 6, 2017 Unitats:  Mètric    Imperial   Tant
« Previous Dia
SegĂźent Dia »
Diari Setmana Mensual Anual Personalitzada
  Maxima: Minima: Media:
Temperatura: 34.7 °C 22.2 °C 28.2 °C
Punt de rosada: 19.5 °C 16.6 °C 18.6 °C
Humitat: 78 % 39 % 58 %
Wind Speed: 24.1 km/h 0.0 km/h 6.8 km/h
RĂ fegues de vent: 24.1 km/h - -
Vent:- - SSW
Pression baro: 1015.8 hPa 1013.8 hPa -
Precipitacions: 0.0 mm    
Historical Graphs
 
 
Dades de taula per Agost 6, 2017
Temps Temperatura Punt de rosada Pression baro Vent Wind Speed RĂ fegues de vent Humitat Rainfall Rate (Hourly)
00:00 24.1 °C 18.3 °C 1013.8 hPa NNE 1.6 km/h 3.2 km/h 70 % 0.0 mm
00:01 26.7 °C 16.6 °C 1013.8 hPa Calm     54 % 0.0 mm
00:10 23.9 °C 18.3 °C 1013.8 hPa Calm   3.2 km/h 71 % 0.0 mm
00:20 23.8 °C 18.2 °C 1013.8 hPa Calm   1.6 km/h 71 % 0.0 mm
00:30 23.9 °C 18.6 °C 1013.8 hPa Calm   1.6 km/h 72 % 0.0 mm
00:40 23.6 °C 18.3 °C 1013.8 hPa Calm   3.2 km/h 72 % 0.0 mm
00:50 23.7 °C 18.3 °C 1013.8 hPa North 3.2 km/h 3.2 km/h 72 % 0.0 mm
01:00 23.7 °C 18.6 °C 1013.8 hPa Calm   3.2 km/h 73 % 0.0 mm
01:10 23.8 °C 18.4 °C 1014.8 hPa Calm   1.6 km/h 72 % 0.0 mm
01:20 23.8 °C 18.4 °C 1013.8 hPa Calm   1.6 km/h 72 % 0.0 mm
01:30 23.6 °C 18.3 °C 1013.8 hPa Calm   3.2 km/h 72 % 0.0 mm
01:40 23.3 °C 17.9 °C 1014.8 hPa SW 3.2 km/h 4.8 km/h 72 % 0.0 mm
01:50 23.3 °C 18.2 °C 1014.8 hPa SW 1.6 km/h 3.2 km/h 73 % 0.0 mm
02:00 23.4 °C 18.3 °C 1014.8 hPa Calm   1.6 km/h 73 % 0.0 mm
02:10 23.3 °C 18.2 °C 1014.8 hPa NW 1.6 km/h 3.2 km/h 73 % 0.0 mm
02:20 23.2 °C 18.3 °C 1014.8 hPa SW 1.6 km/h 1.6 km/h 74 % 0.0 mm
02:30 23.2 °C 18.3 °C 1014.8 hPa SW 1.6 km/h 3.2 km/h 74 % 0.0 mm
02:40 23.2 °C 18.3 °C 1014.8 hPa WSW 1.6 km/h 4.8 km/h 74 % 0.0 mm
02:50 23.7 °C 18.8 °C 1014.8 hPa North 1.6 km/h 3.2 km/h 74 % 0.0 mm
03:00 23.6 °C 18.5 °C 1014.8 hPa North 1.6 km/h 3.2 km/h 73 % 0.0 mm
03:10 23.5 °C 18.6 °C 1014.8 hPa SW 1.6 km/h 3.2 km/h 74 % 0.0 mm
03:20 23.6 °C 18.7 °C 1015.8 hPa SW 3.2 km/h 3.2 km/h 74 % 0.0 mm
03:30 23.8 °C 18.4 °C 1015.8 hPa Calm   3.2 km/h 72 % 0.0 mm
03:40 24.3 °C 18.2 °C 1015.8 hPa SW 1.6 km/h 3.2 km/h 69 % 0.0 mm
03:50 24.7 °C 18.6 °C 1015.8 hPa Calm   1.6 km/h 69 % 0.0 mm
04:00 25.5 °C 18.9 °C 1015.8 hPa SSW 1.6 km/h 3.2 km/h 67 % 0.0 mm
04:10 26.4 °C 18.8 °C 1015.8 hPa SSW 3.2 km/h 3.2 km/h 63 % 0.0 mm
04:20 26.8 °C 18.7 °C 1015.8 hPa SSW 1.6 km/h 3.2 km/h 61 % 0.0 mm
04:30 26.9 °C 18.7 °C 1015.8 hPa SW 1.6 km/h 4.8 km/h 61 % 0.0 mm
04:40 27.3 °C 18.6 °C 1015.8 hPa SW 3.2 km/h 4.8 km/h 59 % 0.0 mm
04:50 28.2 °C 19.4 °C 1015.8 hPa Calm   3.2 km/h 59 % 0.0 mm
05:00 28.7 °C 19.1 °C 1015.8 hPa SE 3.2 km/h 4.8 km/h 56 % 0.0 mm
05:10 28.2 °C 18.0 °C 1014.8 hPa East 4.8 km/h 4.8 km/h 54 % 0.0 mm
05:20 28.8 °C 18.8 °C 1015.8 hPa ESE 3.2 km/h 3.2 km/h 55 % 0.0 mm
05:30 30.1 °C 19.4 °C 1015.8 hPa SSE 1.6 km/h 6.4 km/h 53 % 0.0 mm
05:40 30.3 °C 19.3 °C 1015.8 hPa Calm   4.8 km/h 52 % 0.0 mm
05:50 30.1 °C 18.8 °C 1015.8 hPa South 1.6 km/h 6.4 km/h 51 % 0.0 mm
06:00 30.8 °C 19.5 °C 1015.8 hPa South 1.6 km/h 6.4 km/h 51 % 0.0 mm
06:10 30.9 °C 18.9 °C 1015.8 hPa SSW 1.6 km/h 3.2 km/h 49 % 0.0 mm
06:20 31.3 °C 19.0 °C 1015.8 hPa SSW 4.8 km/h 4.8 km/h 48 % 0.0 mm
06:30 31.2 °C 18.6 °C 1015.8 hPa SW 3.2 km/h 6.4 km/h 47 % 0.0 mm
06:40 31.4 °C 18.4 °C 1015.8 hPa West 3.2 km/h 4.8 km/h 46 % 0.0 mm
06:50 32.4 °C 18.9 °C 1015.8 hPa NW 1.6 km/h 4.8 km/h 45 % 0.0 mm
07:00 33.0 °C 18.8 °C 1015.8 hPa SSW 3.2 km/h 4.8 km/h 43 % 0.0 mm
07:10 33.7 °C 19.0 °C 1014.8 hPa SSE 3.2 km/h 6.4 km/h 42 % 0.0 mm
07:20 32.9 °C 18.7 °C 1015.8 hPa South 4.8 km/h 9.7 km/h 43 % 0.0 mm
07:30 32.8 °C 18.2 °C 1015.8 hPa SW 4.8 km/h 4.8 km/h 42 % 0.0 mm
07:40 33.8 °C 18.7 °C 1014.8 hPa SW 3.2 km/h 4.8 km/h 41 % 0.0 mm
07:50 33.9 °C 18.8 °C 1014.8 hPa SSW 1.6 km/h 4.8 km/h 41 % 0.0 mm
08:00 34.1 °C 18.6 °C 1014.8 hPa SSW 1.6 km/h 6.4 km/h 40 % 0.0 mm
08:10 34.2 °C 18.3 °C 1014.8 hPa SSW 4.8 km/h 8.0 km/h 39 % 0.0 mm
08:20 34.7 °C 19.1 °C 1014.8 hPa SSW 3.2 km/h 6.4 km/h 40 % 0.0 mm
08:30 34.0 °C 18.1 °C 1014.8 hPa SSW 3.2 km/h 9.7 km/h 39 % 0.0 mm
08:40 33.9 °C 18.4 °C 1014.8 hPa South 3.2 km/h 8.0 km/h 40 % 0.0 mm
08:50 32.8 °C 18.2 °C 1013.8 hPa SW 3.2 km/h 9.7 km/h 42 % 0.0 mm
09:00 33.6 °C 18.6 °C 1013.8 hPa SW 8.0 km/h 9.7 km/h 41 % 0.0 mm
09:10 33.4 °C 18.7 °C 1014.8 hPa SW 8.0 km/h 9.7 km/h 42 % 0.0 mm
09:20 33.7 °C 18.6 °C 1014.8 hPa SW 8.0 km/h 9.7 km/h 41 % 0.0 mm
09:30 33.7 °C 18.6 °C 1014.8 hPa SW 3.2 km/h 16.1 km/h 41 % 0.0 mm
09:40 34.1 °C 19.0 °C 1014.8 hPa SSW 8.0 km/h 12.9 km/h 41 % 0.0 mm
09:50 33.6 °C 18.6 °C 1014.8 hPa SW 4.8 km/h 11.3 km/h 41 % 0.0 mm
10:00 34.4 °C 18.8 °C 1014.8 hPa SW 4.8 km/h 6.4 km/h 40 % 0.0 mm
10:10 34.2 °C 18.3 °C 1014.8 hPa SW 4.8 km/h 12.9 km/h 39 % 0.0 mm
10:20 34.0 °C 18.1 °C 1014.8 hPa SW 9.7 km/h 12.9 km/h 39 % 0.0 mm
10:30 34.0 °C 18.1 °C 1014.8 hPa SW 4.8 km/h 4.8 km/h 39 % 0.0 mm
10:40 34.6 °C 19.1 °C 1014.8 hPa SSW 4.8 km/h 8.0 km/h 40 % 0.0 mm
15:44 34.3 °C 18.3 °C 1014.8 hPa West 18.5 km/h 18.5 km/h 39 % 0.0 mm
15:49 34.4 °C 18.4 °C 1013.8 hPa SW 16.7 km/h 16.7 km/h 39 % 0.0 mm
15:54 34.4 °C 18.4 °C 1013.8 hPa South 24.1 km/h 24.1 km/h 39 % 0.0 mm
15:59 34.1 °C 18.2 °C 1013.8 hPa SW 9.3 km/h 10.3 km/h 39 % 0.0 mm
16:04 33.5 °C 18.1 °C 1013.8 hPa WSW 20.1 km/h 20.1 km/h 40 % 0.0 mm
16:09 33.2 °C 18.2 °C 1013.8 hPa WSW 16.4 km/h 16.4 km/h 41 % 0.0 mm
16:14 33.2 °C 18.2 °C 1013.8 hPa SSW 18.5 km/h 18.5 km/h 41 % 0.0 mm
16:19 33.5 °C 18.4 °C 1013.8 hPa WSW 20.4 km/h 20.4 km/h 41 % 0.0 mm
16:24 33.3 °C 18.3 °C 1013.8 hPa SW 13.0 km/h 13.0 km/h 41 % 0.0 mm
16:29 33.1 °C 18.4 °C 1013.8 hPa South 9.3 km/h 9.3 km/h 42 % 0.0 mm
16:34 32.9 °C 18.7 °C 1013.8 hPa SSW 13.0 km/h 13.0 km/h 43 % 0.0 mm
16:39 33.1 °C 18.4 °C 1013.8 hPa SSW 13.0 km/h 13.0 km/h 42 % 0.0 mm
16:44 33.0 °C 18.8 °C 1013.8 hPa South 17.5 km/h 17.5 km/h 43 % 0.0 mm
16:49 32.7 °C 18.5 °C 1013.8 hPa South 22.2 km/h 22.2 km/h 43 % 0.0 mm
16:54 32.3 °C 18.5 °C 1013.8 hPa WSW 14.8 km/h 14.8 km/h 44 % 0.0 mm
16:59 32.6 °C 18.8 °C 1013.8 hPa SW 13.0 km/h 13.0 km/h 44 % 0.0 mm
17:04 32.2 °C 18.8 °C 1013.8 hPa SSW 14.8 km/h 14.8 km/h 45 % 0.0 mm
17:09 31.9 °C 18.8 °C 1013.8 hPa SSW 16.7 km/h 16.7 km/h 46 % 0.0 mm
17:14 32.3 °C 18.8 °C 1013.8 hPa WSW 7.4 km/h 7.4 km/h 45 % 0.0 mm
17:19 32.4 °C 19.3 °C 1013.8 hPa SW 19.5 km/h 19.5 km/h 46 % 0.0 mm
17:24 31.9 °C 18.8 °C 1013.8 hPa WSW 18.5 km/h 18.5 km/h 46 % 0.0 mm
17:29 32.4 °C 19.3 °C 1013.8 hPa West 9.3 km/h 9.3 km/h 46 % 0.0 mm
17:34 31.7 °C 19.0 °C 1013.8 hPa South 13.0 km/h 13.0 km/h 47 % 0.0 mm
17:39 30.9 °C 18.6 °C 1013.8 hPa SW 7.4 km/h 7.4 km/h 48 % 0.0 mm
17:44 30.6 °C 18.7 °C 1013.8 hPa WSW 9.3 km/h 9.3 km/h 49 % 0.0 mm
17:49 30.3 °C 18.7 °C 1014.8 hPa West 14.8 km/h 14.8 km/h 50 % 0.0 mm
17:54 30.1 °C 18.8 °C 1014.8 hPa SW 24.1 km/h 24.1 km/h 51 % 0.0 mm
17:59 30.3 °C 19.1 °C 1014.8 hPa SSW 11.1 km/h 11.1 km/h 51 % 0.0 mm
18:04 30.6 °C 19.3 °C 1014.8 hPa SW 16.4 km/h 16.4 km/h 51 % 0.0 mm
18:09 30.4 °C 19.1 °C 1014.8 hPa South 13.0 km/h 13.0 km/h 51 % 0.0 mm
18:14 30.3 °C 19.1 °C 1014.8 hPa SSW 11.1 km/h 11.1 km/h 51 % 0.0 mm
18:15 30.4 °C 19.1 °C 1014.8 hPa SW 14.8 km/h 14.8 km/h 51 % 0.0 mm
18:20 30.7 °C 19.4 °C 1013.8 hPa SW 9.3 km/h 9.3 km/h 51 % 0.0 mm
18:25 30.2 °C 19.3 °C 1013.8 hPa SW 10.3 km/h 10.3 km/h 52 % 0.0 mm
18:30 29.9 °C 19.0 °C 1013.8 hPa SW 14.8 km/h 14.8 km/h 52 % 0.0 mm
18:35 29.7 °C 19.1 °C 1013.8 hPa South 13.0 km/h 13.0 km/h 53 % 0.0 mm
18:40 29.5 °C 18.9 °C 1013.8 hPa South 16.7 km/h 16.7 km/h 53 % 0.0 mm
18:45 29.4 °C 19.1 °C 1013.8 hPa SSW 9.3 km/h 9.3 km/h 54 % 0.0 mm
18:50 29.4 °C 19.1 °C 1014.8 hPa SSW 14.8 km/h 14.8 km/h 54 % 0.0 mm
18:55 29.4 °C 19.1 °C 1014.8 hPa SW 13.0 km/h 13.0 km/h 54 % 0.0 mm
19:05 29.3 °C 19.1 °C 1014.8 hPa SSE 16.7 km/h 16.7 km/h 54 % 0.0 mm
19:10 29.0 °C 19.1 °C 1014.8 hPa SSW 9.3 km/h 9.3 km/h 55 % 0.0 mm
19:15 29.2 °C 18.9 °C 1014.8 hPa WSW 14.0 km/h 14.0 km/h 54 % 0.0 mm
19:20 29.1 °C 19.1 °C 1013.8 hPa West 11.1 km/h 11.1 km/h 55 % 0.0 mm
19:25 29.2 °C 19.2 °C 1013.8 hPa SW 9.5 km/h 9.5 km/h 55 % 0.0 mm
19:30 29.1 °C 19.1 °C 1013.8 hPa SW 9.3 km/h 9.3 km/h 55 % 0.0 mm
19:35 28.7 °C 19.1 °C 1013.8 hPa SSW 13.0 km/h 13.0 km/h 56 % 0.0 mm
19:40 28.5 °C 19.2 °C 1013.8 hPa SW 11.1 km/h 11.1 km/h 57 % 0.0 mm
19:45 28.4 °C 19.1 °C 1013.8 hPa WSW 9.3 km/h 9.3 km/h 57 % 0.0 mm
19:50 28.4 °C 19.1 °C 1014.8 hPa SSW 9.3 km/h 9.3 km/h 57 % 0.0 mm
19:55 28.0 °C 18.7 °C 1014.8 hPa WSW 14.8 km/h 14.8 km/h 57 % 0.0 mm
20:00 28.0 °C 18.9 °C 1014.8 hPa SW 9.3 km/h 9.3 km/h 58 % 0.0 mm
20:05 27.8 °C 18.8 °C 1013.8 hPa SW 14.8 km/h 14.8 km/h 58 % 0.0 mm
20:15 27.5 °C 18.8 °C 1013.8 hPa ESE 9.3 km/h 9.3 km/h 59 % 0.0 mm
20:25 27.2 °C 18.8 °C 1013.8 hPa SSW 9.3 km/h 9.3 km/h 60 % 0.0 mm
20:30 27.1 °C 18.7 °C 1013.8 hPa South 5.6 km/h 5.6 km/h 60 % 0.0 mm
20:35 27.0 °C 18.8 °C 1013.8 hPa SSW 7.4 km/h 7.4 km/h 61 % 0.0 mm
20:40 26.8 °C 18.9 °C 1013.8 hPa SW 9.3 km/h 9.3 km/h 62 % 0.0 mm
20:45 26.6 °C 18.4 °C 1013.8 hPa South 9.3 km/h 9.3 km/h 61 % 0.0 mm
20:50 26.5 °C 18.6 °C 1014.8 hPa SSW 4.2 km/h 4.2 km/h 62 % 0.0 mm
20:55 26.4 °C 18.8 °C 1014.8 hPa West 9.3 km/h 9.3 km/h 63 % 0.0 mm
21:00 26.3 °C 18.4 °C 1014.8 hPa SW 7.4 km/h 7.4 km/h 62 % 0.0 mm
21:05 26.0 °C 18.4 °C 1014.8 hPa WSW 11.4 km/h 11.4 km/h 63 % 0.0 mm
21:10 25.8 °C 18.2 °C 1014.8 hPa SW 11.1 km/h 11.1 km/h 63 % 0.0 mm
21:15 25.7 °C 18.4 °C 1014.8 hPa WSW 5.6 km/h 5.6 km/h 64 % 0.0 mm
21:20 25.6 °C 18.3 °C 1014.8 hPa WSW 3.7 km/h 3.7 km/h 64 % 0.0 mm
21:25 25.6 °C 18.3 °C 1014.8 hPa SSW 7.4 km/h 7.4 km/h 64 % 0.0 mm
21:30 25.5 °C 18.2 °C 1014.8 hPa SW 9.3 km/h 9.3 km/h 64 % 0.0 mm
21:35 25.4 °C 18.1 °C 1014.8 hPa SW 9.3 km/h 9.3 km/h 64 % 0.0 mm
21:40 25.3 °C 18.2 °C 1014.8 hPa SSW 3.9 km/h 3.9 km/h 65 % 0.0 mm
21:45 25.2 °C 18.2 °C 1014.8 hPa SW 5.6 km/h 5.6 km/h 65 % 0.0 mm
21:50 25.1 °C 18.1 °C 1014.8 hPa SSE 5.8 km/h 5.8 km/h 65 % 0.0 mm
21:55 25.0 °C 17.9 °C 1014.8 hPa SW 5.0 km/h 5.0 km/h 65 % 0.0 mm
22:00 24.9 °C 18.3 °C 1014.8 hPa SW 5.6 km/h 5.6 km/h 67 % 0.0 mm
22:05 24.8 °C 18.3 °C 1014.8 hPa WSW 3.7 km/h 3.7 km/h 67 % 0.0 mm
22:10 24.8 °C 18.3 °C 1014.8 hPa South 3.7 km/h 3.7 km/h 67 % 0.0 mm
22:15 24.7 °C 18.4 °C 1014.8 hPa WSW 4.2 km/h 4.2 km/h 68 % 0.0 mm
22:20 24.6 °C 18.3 °C 1015.8 hPa SW 5.6 km/h 5.6 km/h 68 % 0.0 mm
22:25 24.6 °C 18.3 °C 1015.8 hPa SW 5.6 km/h 5.6 km/h 68 % 0.0 mm
22:30 24.5 °C 18.4 °C 1015.8 hPa SW 3.9 km/h 3.9 km/h 69 % 0.0 mm
22:35 24.4 °C 18.3 °C 1015.8 hPa SW 3.7 km/h 3.7 km/h 69 % 0.0 mm
22:40 24.4 °C 18.3 °C 1015.8 hPa SW 5.6 km/h 5.6 km/h 69 % 0.0 mm
22:41 24.3 °C 18.2 °C 1015.8 hPa SW 5.6 km/h 5.6 km/h 69 % 0.0 mm
22:45 22.8 °C 18.1 °C 1015.8 hPa Calm   3.2 km/h 75 % 0.0 mm
22:46 24.3 °C 18.2 °C 1015.8 hPa WSW 5.6 km/h 5.6 km/h 69 % 0.0 mm
22:51 24.3 °C 18.2 °C 1015.8 hPa SW 3.7 km/h 3.7 km/h 69 % 0.0 mm
22:55 22.7 °C 18.2 °C 1014.8 hPa Calm     76 % 0.0 mm
22:56 24.2 °C 18.4 °C 1015.8 hPa SW 4.2 km/h 4.2 km/h 70 % 0.0 mm
23:01 24.2 °C 18.4 °C 1015.8 hPa WSW 3.7 km/h 3.7 km/h 70 % 0.0 mm
23:05 22.6 °C 18.2 °C 1014.8 hPa Calm     76 % 0.0 mm
23:06 24.1 °C 18.3 °C 1015.8 hPa SW 7.4 km/h 7.4 km/h 70 % 0.0 mm
23:11 24.1 °C 18.3 °C 1015.8 hPa SW 3.7 km/h 3.7 km/h 70 % 0.0 mm
23:15 22.5 °C 18.1 °C 1014.8 hPa SW 1.6 km/h 3.2 km/h 76 % 0.0 mm
23:16 24.1 °C 18.3 °C 1015.8 hPa SW 5.6 km/h 5.6 km/h 70 % 0.0 mm
23:18 24.1 °C 18.5 °C 1015.8 hPa SW 1.9 km/h 1.9 km/h 71 % 0.0 mm
23:23 24.0 °C 18.2 °C 1015.8 hPa SW 3.7 km/h 3.7 km/h 70 % 0.0 mm
23:25 22.4 °C 18.2 °C 1015.8 hPa Calm   1.6 km/h 77 % 0.0 mm
23:28 24.0 °C 18.4 °C 1015.8 hPa SW 3.7 km/h 3.7 km/h 71 % 0.0 mm
23:33 24.0 °C 18.4 °C 1015.8 hPa SW 3.2 km/h 3.2 km/h 71 % 0.0 mm
23:35 22.4 °C 18.2 °C 1014.8 hPa Calm     77 % 0.0 mm
23:38 23.9 °C 18.6 °C 1015.8 hPa WSW 1.9 km/h 1.9 km/h 72 % 0.0 mm
23:43 23.9 °C 18.6 °C 1015.8 hPa WSW 3.7 km/h   72 % 0.0 mm
23:45 22.3 °C 18.1 °C 1014.8 hPa Calm     77 % 0.0 mm
23:48 23.8 °C 18.4 °C 1014.8 hPa SW 3.7 km/h 3.7 km/h 72 % 0.0 mm
23:53 23.8 °C 18.4 °C 1014.8 hPa WSW 1.9 km/h 1.9 km/h 72 % 0.0 mm
23:55 22.2 °C 18.2 °C 1014.8 hPa Calm     78 % 0.0 mm
23:58 23.8 °C 18.4 °C 1014.8 hPa SW 3.7 km/h 3.7 km/h 72 % 0.0 mm
Meteo Sesrovires
Elogis d' Weather Underground - 3.5 mb

Guio original per  Jim McMurry - jmcmurry@mwt.net Adaptat per a la plantilla per  Wim van der Kuil - Leuven-Template.eu

Trobareu la nostra informacio del temps tambe a:

Weather Underground

AWEKAS